This is the latest recevied weather packets stored in our database for station/object ER1XDX-15. If no packets are shown the sender has not sent any weather packets the latest 1 day(s).
| Time | Temp. | Humidity | Pressure | Rain* | Wind** | Luminosity | Snow |
|---|---|---|---|---|---|---|---|
| 1777886400 | 21.67° C | 24% | 1006.2 hPa | - | - | - | - |
| 1777885500 | 22.22° C | 25% | 1006.2 hPa | - | - | - | - |
| 1777884600 | 21.67° C | 24% | 1006.1 hPa | - | - | - | - |
| 1777883699 | 22.22° C | 24% | 1006.2 hPa | - | - | - | - |
| 1777882799 | 22.78° C | 23% | 1006.2 hPa | - | - | - | - |
| 1777881899 | 22.78° C | 24% | 1006.3 hPa | - | - | - | - |
| 1777880999 | 23.33° C | 24% | 1006.1 hPa | - | - | - | - |
| 1777880099 | 23.89° C | 22% | 1006.1 hPa | - | - | - | - |
| 1777879199 | 25.56° C | 22% | 1005.9 hPa | - | - | - | - |
| 1777878299 | 27.22° C | 21% | 1006 hPa | - | - | - | - |
| 1777877399 | 27.78° C | 19% | 1005.9 hPa | - | - | - | - |
| 1777876499 | 27.22° C | 21% | 1005.8 hPa | - | - | - | - |
| 1777875599 | 26.67° C | 21% | 1005.9 hPa | - | - | - | - |
| 1777874699 | 27.22° C | 20% | 1005.8 hPa | - | - | - | - |
| 1777873798 | 26.67° C | 19% | 1005.9 hPa | - | - | - | - |
| 1777872898 | 26.11° C | 19% | 1006 hPa | - | - | - | - |
| 1777871998 | 25.56° C | 19% | 1006.1 hPa | - | - | - | - |
| 1777871098 | 25° C | 19% | 1006 hPa | - | - | - | - |
| 1777870198 | 24.44° C | 20% | 1006 hPa | - | - | - | - |
| 1777869298 | 23.89° C | 20% | 1006.1 hPa | - | - | - | - |
| 1777868398 | 22.22° C | 23% | 1006.1 hPa | - | - | - | - |
| 1777867498 | 21.11° C | 24% | 1006.1 hPa | - | - | - | - |
| 1777866598 | 20° C | 25% | 1006.2 hPa | - | - | - | - |
| 1777865698 | 19.44° C | 26% | 1006.2 hPa | - | - | - | - |
| 1777864798 | 18.89° C | 27% | 1006.1 hPa | - | - | - | - |
* Rain since midnight (hover to see other rain measurements)
** Current wind speed in m/s (hover to see current wind gust speed)